createdAt,value
2022-12-18T00:00:28.677Z,96.29
2022-12-18T00:04:50.523Z,96.35
2022-12-18T00:08:52.742Z,96.35
2022-12-18T00:12:54.625Z,96.41
2022-12-18T00:16:58.811Z,96.31
2022-12-18T00:21:03.217Z,96.26
2022-12-18T00:25:05.286Z,96.35
2022-12-18T00:29:14.326Z,96.39
2022-12-18T00:33:16.165Z,96.25
2022-12-18T00:37:20.216Z,96.19
2022-12-18T00:41:46.581Z,95.95
2022-12-18T00:45:48.627Z,96.00
2022-12-18T00:49:50.590Z,96.06
2022-12-18T00:53:53.198Z,96.03
2022-12-18T00:57:55.078Z,96.02
2022-12-18T01:01:57.003Z,95.97
2022-12-18T01:05:59.043Z,96.02
2022-12-18T01:10:01.138Z,96.03
2022-12-18T01:14:03.283Z,95.80
2022-12-18T01:18:05.137Z,96.19
2022-12-18T01:22:07.036Z,96.04
2022-12-18T01:26:16.819Z,95.85
2022-12-18T01:30:19.155Z,96.01
2022-12-18T01:34:21.045Z,96.07
2022-12-18T01:38:22.975Z,95.96
2022-12-18T01:42:26.115Z,96.13
2022-12-18T01:46:28.172Z,96.15
2022-12-18T01:50:37.513Z,96.17
2022-12-18T01:54:39.457Z,96.01
2022-12-18T01:58:56.809Z,95.91
2022-12-18T02:02:58.913Z,95.97
2022-12-18T02:07:09.346Z,95.88
2022-12-18T02:11:37.460Z,95.86
2022-12-18T02:15:47.014Z,95.82
2022-12-18T02:20:17.286Z,95.94
2022-12-18T02:24:54.345Z,95.82
2022-12-18T02:29:02.814Z,95.78
2022-12-18T02:33:09.425Z,95.70
2022-12-18T02:37:15.492Z,95.70
2022-12-18T02:41:18.770Z,95.72
2022-12-18T02:45:21.136Z,95.84
2022-12-18T02:49:49.076Z,95.93
2022-12-18T02:54:07.532Z,95.73
2022-12-18T02:58:14.846Z,95.86
2022-12-18T03:02:23.417Z,95.87
2022-12-18T03:06:37.822Z,95.85
2022-12-18T03:10:46.053Z,96.13
2022-12-18T03:14:54.962Z,95.77
2022-12-18T03:19:01.901Z,95.82
2022-12-18T03:23:16.194Z,96.06
2022-12-18T03:27:23.908Z,95.89
2022-12-18T03:31:30.293Z,95.88
2022-12-18T03:35:39.394Z,95.64
2022-12-18T03:39:42.534Z,95.54
2022-12-18T03:43:51.337Z,95.74
2022-12-18T03:48:15.379Z,95.65
2022-12-18T03:52:28.478Z,95.68
2022-12-18T03:56:37.462Z,95.88
2022-12-18T04:00:40.720Z,95.75
2022-12-18T04:04:45.255Z,95.57
2022-12-18T04:08:47.970Z,95.77
2022-12-18T04:12:56.602Z,95.62
2022-12-18T04:16:59.260Z,95.76
2022-12-18T04:21:05.361Z,95.70
2022-12-18T04:25:09.141Z,95.77
2022-12-18T04:29:13.387Z,95.68
2022-12-18T04:33:15.760Z,95.54
2022-12-18T04:37:18.349Z,95.70
2022-12-18T04:41:20.780Z,95.60
2022-12-18T04:45:23.301Z,95.79
2022-12-18T04:49:25.261Z,95.54
2022-12-18T04:53:27.608Z,95.42
2022-12-18T04:57:30.158Z,95.36
2022-12-18T05:01:34.853Z,95.27
2022-12-18T05:05:37.118Z,95.58
2022-12-18T05:09:39.007Z,95.44
2022-12-18T05:13:41.323Z,95.29
2022-12-18T05:17:43.473Z,95.34
2022-12-18T05:21:45.348Z,95.47
2022-12-18T05:25:58.978Z,95.27
2022-12-18T05:30:00.871Z,95.42
2022-12-18T05:34:02.757Z,95.44
2022-12-18T05:38:04.697Z,95.41
2022-12-18T05:42:06.577Z,95.37
2022-12-18T05:46:13.569Z,95.32
2022-12-18T05:50:16.089Z,95.44
2022-12-18T05:54:18.055Z,95.42
2022-12-18T05:58:19.937Z,95.34
2022-12-18T06:02:21.906Z,95.27
2022-12-18T06:06:26.677Z,95.19
2022-12-18T06:10:28.740Z,95.05
2022-12-18T06:14:30.593Z,95.01
2022-12-18T06:18:33.265Z,95.06
2022-12-18T06:22:35.579Z,94.85
2022-12-18T06:26:39.452Z,94.81
2022-12-18T06:30:45.329Z,94.96
2022-12-18T06:34:47.304Z,94.78
2022-12-18T06:38:49.693Z,94.90
2022-12-18T06:42:51.600Z,94.65
2022-12-18T06:46:53.464Z,94.55
2022-12-18T06:50:55.496Z,94.54
2022-12-18T06:54:57.372Z,94.68
2022-12-18T06:58:59.294Z,94.60
2022-12-18T07:03:01.321Z,94.59
2022-12-18T07:07:03.491Z,94.39
2022-12-18T07:11:05.621Z,94.42
2022-12-18T07:15:07.970Z,94.47
2022-12-18T07:19:09.963Z,94.25
2022-12-18T07:23:11.880Z,94.24
2022-12-18T07:27:13.754Z,93.98
2022-12-18T07:31:21.602Z,93.96
2022-12-18T07:35:25.376Z,94.06
2022-12-18T07:39:27.636Z,93.95
2022-12-18T07:43:29.529Z,93.97
2022-12-18T07:47:31.409Z,93.95
2022-12-18T07:51:33.310Z,93.78
2022-12-18T07:55:54.744Z,93.80
2022-12-18T07:59:57.075Z,93.76
2022-12-18T08:03:59.313Z,93.73
2022-12-18T08:08:01.340Z,93.68
2022-12-18T08:12:03.480Z,93.38
2022-12-18T08:16:07.909Z,93.18
2022-12-18T08:20:10.329Z,93.07
2022-12-18T08:24:12.268Z,92.94
2022-12-18T08:28:14.147Z,92.83
2022-12-18T08:32:16.082Z,93.14
2022-12-18T08:36:18.472Z,92.77
2022-12-18T08:40:21.628Z,92.37
2022-12-18T08:44:38.704Z,92.11
2022-12-18T08:48:40.794Z,92.09
2022-12-18T08:52:42.743Z,92.06
2022-12-18T08:56:44.669Z,91.31
2022-12-18T09:00:46.706Z,91.54
2022-12-18T09:04:53.765Z,91.54
2022-12-18T09:08:58.968Z,91.41
2022-12-18T09:13:01.637Z,92.03
2022-12-18T09:17:03.835Z,91.98
2022-12-18T09:21:14.965Z,91.90
2022-12-18T09:25:16.910Z,92.11
2022-12-18T09:29:19.171Z,91.62
2022-12-18T09:33:21.448Z,91.24
2022-12-18T09:37:23.390Z,91.34
2022-12-18T09:41:44.906Z,91.13
2022-12-18T09:45:52.171Z,91.22
2022-12-18T09:50:00.154Z,91.29
2022-12-18T09:54:13.143Z,90.93
2022-12-18T09:58:45.864Z,90.81
2022-12-18T10:02:48.667Z,91.12
2022-12-18T10:07:18.039Z,91.70
2022-12-18T10:11:35.047Z,91.61
2022-12-18T10:15:54.619Z,91.12
2022-12-18T10:20:14.398Z,90.60
2022-12-18T10:24:34.428Z,90.31
2022-12-18T10:28:40.404Z,89.90
2022-12-18T10:32:43.363Z,90.96
2022-12-18T10:36:45.365Z,91.31
2022-12-18T10:41:01.919Z,90.28
2022-12-18T10:45:13.764Z,90.35
2022-12-18T10:49:29.511Z,90.44
2022-12-18T10:53:33.396Z,90.50
2022-12-18T10:57:38.524Z,90.20
2022-12-18T11:01:50.502Z,90.42
2022-12-18T11:06:03.324Z,90.26
2022-12-18T11:10:06.356Z,90.02
2022-12-18T11:14:22.182Z,89.96
2022-12-18T11:18:32.340Z,89.73
2022-12-18T11:22:37.303Z,90.18
2022-12-18T11:26:40.145Z,90.11
2022-12-18T11:30:43.046Z,90.01
2022-12-18T11:34:59.189Z,90.09
2022-12-18T11:39:14.207Z,90.38
2022-12-18T11:43:27.699Z,90.18
2022-12-18T11:48:04.454Z,90.02
2022-12-18T11:52:24.646Z,89.95
2022-12-18T11:56:36.874Z,90.58
2022-12-18T12:00:47.683Z,90.13
2022-12-18T12:05:04.056Z,90.09
2022-12-18T12:09:23.950Z,90.48
2022-12-18T12:13:47.417Z,90.80
2022-12-18T12:18:11.333Z,90.23
2022-12-18T12:23:09.275Z,90.24
2022-12-18T12:27:35.361Z,89.68
2022-12-18T12:32:16.626Z,90.08
2022-12-18T12:36:34.577Z,90.31
2022-12-18T12:40:52.464Z,90.72
2022-12-18T12:45:02.284Z,90.78
2022-12-18T12:49:10.914Z,90.56
2022-12-18T12:53:24.544Z,90.41
2022-12-18T12:57:40.666Z,90.55
2022-12-18T13:02:04.231Z,90.10
2022-12-18T13:06:33.509Z,89.68
2022-12-18T13:10:38.802Z,89.98
2022-12-18T13:14:41.763Z,89.46
2022-12-18T13:18:51.059Z,90.14
2022-12-18T13:22:53.453Z,89.91
2022-12-18T13:26:55.443Z,89.82
2022-12-18T13:30:58.384Z,90.25
2022-12-18T13:35:18.888Z,90.06
2022-12-18T13:39:30.277Z,89.57
2022-12-18T13:43:41.671Z,90.02
2022-12-18T13:47:44.514Z,90.10
2022-12-18T13:51:49.804Z,90.46
2022-12-18T13:55:52.955Z,90.97
2022-12-18T13:59:56.441Z,91.14
2022-12-18T14:04:34.051Z,91.19
2022-12-18T14:08:42.617Z,91.09
2022-12-18T14:13:00.884Z,90.83
2022-12-18T14:17:10.952Z,90.67
2022-12-18T14:21:23.768Z,90.50
2022-12-18T14:25:31.102Z,90.69
2022-12-18T14:29:35.374Z,90.70
2022-12-18T14:33:39.029Z,90.13
2022-12-18T14:37:41.248Z,90.31
2022-12-18T14:41:43.230Z,90.84
2022-12-18T14:45:47.053Z,91.06
2022-12-18T14:49:49.662Z,91.31
2022-12-18T14:54:02.483Z,91.57
2022-12-18T14:58:04.410Z,91.64
2022-12-18T15:02:27.307Z,91.73
2022-12-18T15:06:38.299Z,91.57
2022-12-18T15:10:47.808Z,91.26
2022-12-18T15:14:49.793Z,91.06
2022-12-18T15:18:53.938Z,90.98
2022-12-18T15:22:55.949Z,90.94
2022-12-18T15:26:58.684Z,90.85
2022-12-18T15:31:02.170Z,91.21
2022-12-18T15:35:21.893Z,91.47
2022-12-18T15:39:25.263Z,91.25
2022-12-18T15:43:37.329Z,91.31
2022-12-18T15:47:39.762Z,91.08
2022-12-18T15:51:41.845Z,91.19
2022-12-18T15:56:02.515Z,91.43
2022-12-18T16:00:05.668Z,91.32
2022-12-18T16:04:09.618Z,91.29
2022-12-18T16:08:11.585Z,91.18
2022-12-18T16:12:21.461Z,91.17
2022-12-18T16:16:23.455Z,91.07
2022-12-18T16:20:26.146Z,91.11
2022-12-18T16:24:31.250Z,91.06
2022-12-18T16:28:33.221Z,91.46
2022-12-18T16:32:35.186Z,91.43
2022-12-18T16:36:37.198Z,91.44
2022-12-18T16:40:59.066Z,91.16
2022-12-18T16:45:01.036Z,91.23
2022-12-18T16:49:03.567Z,91.23
2022-12-18T16:53:06.163Z,91.10
2022-12-18T16:57:12.695Z,90.98
2022-12-18T17:01:14.629Z,90.88
2022-12-18T17:05:16.886Z,91.02
2022-12-18T17:09:26.206Z,91.22
2022-12-18T17:13:28.181Z,91.27
2022-12-18T17:17:30.170Z,91.22
2022-12-18T17:21:32.525Z,91.09
2022-12-18T17:25:34.473Z,91.19
2022-12-18T17:29:36.489Z,91.06
2022-12-18T17:33:38.825Z,91.05
2022-12-18T17:37:41.942Z,91.11
2022-12-18T17:41:43.975Z,90.93
2022-12-18T17:45:45.985Z,90.96
2022-12-18T17:49:48.038Z,91.12
2022-12-18T17:53:50.540Z,91.17
2022-12-18T17:57:52.984Z,91.30
2022-12-18T18:01:55.451Z,90.97
2022-12-18T18:06:00.109Z,90.96
2022-12-18T18:10:02.162Z,90.98
2022-12-18T18:14:10.712Z,90.94
2022-12-18T18:18:12.695Z,91.04
2022-12-18T18:22:17.977Z,90.85
2022-12-18T18:26:21.697Z,91.03
2022-12-18T18:30:25.086Z,91.01
2022-12-18T18:34:30.738Z,91.08
2022-12-18T18:38:32.715Z,91.07
2022-12-18T18:42:34.606Z,90.99
2022-12-18T18:46:36.517Z,90.90
2022-12-18T18:50:38.467Z,91.02
2022-12-18T18:54:57.139Z,91.12
2022-12-18T18:58:59.450Z,91.14
2022-12-18T19:03:02.085Z,90.97
2022-12-18T19:07:04.848Z,90.94
2022-12-18T19:11:34.539Z,91.00
2022-12-18T19:15:39.315Z,91.17
2022-12-18T19:19:42.085Z,91.22
2022-12-18T19:23:44.263Z,91.25
2022-12-18T19:27:46.257Z,91.12
2022-12-18T19:31:48.371Z,90.96
2022-12-18T19:35:51.800Z,90.91
2022-12-18T19:39:54.524Z,90.86
2022-12-18T19:43:57.979Z,90.95
2022-12-18T19:48:04.281Z,90.89
2022-12-18T19:52:06.489Z,90.88
2022-12-18T19:56:10.397Z,91.07
2022-12-18T20:00:18.482Z,91.11
2022-12-18T20:04:20.911Z,90.77
2022-12-18T20:08:22.941Z,90.83
2022-12-18T20:12:25.161Z,90.64
2022-12-18T20:16:27.357Z,90.81
2022-12-18T20:20:29.599Z,91.20
2022-12-18T20:24:31.546Z,91.13
2022-12-18T20:28:33.583Z,91.14
2022-12-18T20:32:37.323Z,90.91
2022-12-18T20:36:39.922Z,90.89
2022-12-18T20:40:43.101Z,90.78
2022-12-18T20:44:45.356Z,90.74
2022-12-18T20:48:47.618Z,90.81
2022-12-18T20:52:49.589Z,90.83
2022-12-18T20:56:51.532Z,90.75
2022-12-18T21:01:11.820Z,90.96
2022-12-18T21:05:13.861Z,90.92
2022-12-18T21:09:15.877Z,90.98
2022-12-18T21:13:18.939Z,90.97
2022-12-18T21:17:20.919Z,90.76
2022-12-18T21:21:26.543Z,90.86
2022-12-18T21:25:30.011Z,90.90
2022-12-18T21:29:32.810Z,91.19
2022-12-18T21:33:35.194Z,91.28
2022-12-18T21:37:37.107Z,91.31
2022-12-18T21:41:57.585Z,91.29
2022-12-18T21:45:59.864Z,91.39
2022-12-18T21:50:01.720Z,91.37
2022-12-18T21:54:03.842Z,91.37
2022-12-18T21:58:05.938Z,91.25
2022-12-18T22:02:14.872Z,91.27
2022-12-18T22:06:16.901Z,91.17
2022-12-18T22:10:18.823Z,91.30
2022-12-18T22:14:21.813Z,91.31
2022-12-18T22:18:23.827Z,91.42
2022-12-18T22:22:25.761Z,91.52
2022-12-18T22:26:32.707Z,91.43
2022-12-18T22:30:37.066Z,91.31
2022-12-18T22:34:39.054Z,91.34
2022-12-18T22:38:42.781Z,91.66
2022-12-18T22:42:44.675Z,91.57
2022-12-18T22:46:59.679Z,91.46
2022-12-18T22:51:15.140Z,91.44
2022-12-18T22:55:17.082Z,91.63
2022-12-18T22:59:21.143Z,91.62
2022-12-18T23:03:23.197Z,91.77
2022-12-18T23:07:25.335Z,91.83
2022-12-18T23:11:27.206Z,91.87
2022-12-18T23:15:29.286Z,91.83
2022-12-18T23:19:31.200Z,91.90
2022-12-18T23:23:36.933Z,91.94
2022-12-18T23:27:38.880Z,91.96
2022-12-18T23:31:40.899Z,91.97
2022-12-18T23:35:42.839Z,92.00
2022-12-18T23:39:44.757Z,91.93
2022-12-18T23:43:46.721Z,92.08
2022-12-18T23:47:51.151Z,92.12
2022-12-18T23:51:54.722Z,92.08
2022-12-18T23:55:56.848Z,92.06
